sensor_id;sensor_type;location;lat;lon;timestamp;noise_LAeq;noise_LA_min;noise_LA_max;noise_LA01;noise_LA95
49215;Laerm;45943;53.148;8.204;2024-02-23T00:00:43;51.42;44.46;65.56;;
49215;Laerm;45943;53.148;8.204;2024-02-23T00:03:10;56.51;45.87;69.85;;
49215;Laerm;45943;53.148;8.204;2024-02-23T00:05:36;62.27;45.74;75.22;;
49215;Laerm;45943;53.148;8.204;2024-02-23T00:08:02;49.47;44.23;57.02;;
49215;Laerm;45943;53.148;8.204;2024-02-23T00:10:28;51.47;44.83;64.07;;
49215;Laerm;45943;53.148;8.204;2024-02-23T00:12:54;51.88;44.32;67.56;;
49215;Laerm;45943;53.148;8.204;2024-02-23T00:15:21;57.76;45.03;88.59;;
49215;Laerm;45943;53.148;8.204;2024-02-23T00:17:47;49.89;43.89;61.76;;
49215;Laerm;45943;53.148;8.204;2024-02-23T00:20:13;50.85;43.99;65.24;;
49215;Laerm;45943;53.148;8.204;2024-02-23T00:22:40;51.67;44.37;61.99;;
49215;Laerm;45943;53.148;8.204;2024-02-23T00:25:06;54.44;44.75;68.48;;
49215;Laerm;45943;53.148;8.204;2024-02-23T00:27:33;48.04;43.42;57.18;;
49215;Laerm;45943;53.148;8.204;2024-02-23T00:29:59;46.45;43.25;59.42;;
49215;Laerm;45943;53.148;8.204;2024-02-23T00:32:25;45.26;43.18;55.81;;
49215;Laerm;45943;53.148;8.204;2024-02-23T00:34:51;47.13;43.53;56.10;;
49215;Laerm;45943;53.148;8.204;2024-02-23T00:37:17;50.53;43.53;67.54;;
49215;Laerm;45943;53.148;8.204;2024-02-23T00:39:43;45.69;42.95;57.53;;
49215;Laerm;45943;53.148;8.204;2024-02-23T00:42:09;46.58;43.01;53.36;;
49215;Laerm;45943;53.148;8.204;2024-02-23T00:44:35;50.13;43.94;61.08;;
49215;Laerm;45943;53.148;8.204;2024-02-23T00:47:02;50.13;43.48;67.54;;
49215;Laerm;45943;53.148;8.204;2024-02-23T00:49:29;49.76;43.79;69.67;;
49215;Laerm;45943;53.148;8.204;2024-02-23T00:51:55;53.95;43.64;70.87;;
49215;Laerm;45943;53.148;8.204;2024-02-23T00:54:22;49.64;44.32;67.01;;
49215;Laerm;45943;53.148;8.204;2024-02-23T00:56:48;54.32;43.58;68.60;;
49215;Laerm;45943;53.148;8.204;2024-02-23T00:59:14;49.33;42.21;65.97;;
49215;Laerm;45943;53.148;8.204;2024-02-23T01:01:40;50.45;43.19;65.98;;
49215;Laerm;45943;53.148;8.204;2024-02-23T01:04:06;49.39;44.41;61.40;;
49215;Laerm;45943;53.148;8.204;2024-02-23T01:06:32;51.80;44.71;67.84;;
49215;Laerm;45943;53.148;8.204;2024-02-23T01:08:58;49.35;43.19;65.65;;
49215;Laerm;45943;53.148;8.204;2024-02-23T01:11:24;49.23;43.19;67.03;;
49215;Laerm;45943;53.148;8.204;2024-02-23T01:13:50;47.86;43.58;67.46;;
49215;Laerm;45943;53.148;8.204;2024-02-23T01:16:16;50.34;43.53;64.93;;
49215;Laerm;45943;53.148;8.204;2024-02-23T01:18:42;52.56;43.84;69.54;;
49215;Laerm;45943;53.148;8.204;2024-02-23T01:21:08;47.65;43.84;63.21;;
49215;Laerm;45943;53.148;8.204;2024-02-23T01:23:34;46.68;43.31;57.26;;
49215;Laerm;45943;53.148;8.204;2024-02-23T01:26:00;45.28;42.76;52.87;;
49215;Laerm;45943;53.148;8.204;2024-02-23T01:28:27;46.42;42.42;55.28;;
49215;Laerm;45943;53.148;8.204;2024-02-23T01:30:53;51.26;43.13;68.61;;
49215;Laerm;45943;53.148;8.204;2024-02-23T01:33:19;44.71;41.74;54.21;;
49215;Laerm;45943;53.148;8.204;2024-02-23T01:35:45;47.42;41.82;62.14;;
49215;Laerm;45943;53.148;8.204;2024-02-23T01:38:11;44.01;41.90;51.10;;
49215;Laerm;45943;53.148;8.204;2024-02-23T01:40:37;51.37;42.35;69.35;;
49215;Laerm;45943;53.148;8.204;2024-02-23T01:43:04;46.56;42.56;59.84;;
49215;Laerm;45943;53.148;8.204;2024-02-23T01:45:31;46.10;43.01;63.62;;
49215;Laerm;45943;53.148;8.204;2024-02-23T01:47:58;47.84;44.41;58.54;;
49215;Laerm;45943;53.148;8.204;2024-02-23T01:50:25;60.14;44.14;73.63;;
49215;Laerm;45943;53.148;8.204;2024-02-23T01:52:52;56.25;43.02;70.95;;
49215;Laerm;45943;53.148;8.204;2024-02-23T01:55:20;51.41;44.41;64.52;;
49215;Laerm;45943;53.148;8.204;2024-02-23T01:57:47;52.56;44.18;65.30;;
49215;Laerm;45943;53.148;8.204;2024-02-23T02:00:17;51.79;43.25;67.92;;
49215;Laerm;45943;53.148;8.204;2024-02-23T02:02:44;47.57;43.07;59.12;;
49215;Laerm;45943;53.148;8.204;2024-02-23T02:05:10;44.64;42.35;55.51;;
49215;Laerm;45943;53.148;8.204;2024-02-23T02:07:37;54.91;42.63;70.32;;
49215;Laerm;45943;53.148;8.204;2024-02-23T02:10:05;54.92;44.28;71.59;;
49215;Laerm;45943;53.148;8.204;2024-02-23T02:12:32;48.54;43.74;62.88;;
49215;Laerm;45943;53.148;8.204;2024-02-23T02:14:58;51.46;43.69;67.31;;
49215;Laerm;45943;53.148;8.204;2024-02-23T02:17:30;48.09;42.89;71.17;;
49215;Laerm;45943;53.148;8.204;2024-02-23T02:19:58;48.60;43.45;71.19;;
49215;Laerm;45943;53.148;8.204;2024-02-23T02:22:24;45.44;41.13;65.29;;
49215;Laerm;45943;53.148;8.204;2024-02-23T02:24:50;49.37;41.49;68.88;;
49215;Laerm;45943;53.148;8.204;2024-02-23T02:27:16;44.36;41.49;62.57;;
49215;Laerm;45943;53.148;8.204;2024-02-23T02:29:42;45.11;41.82;62.61;;
49215;Laerm;45943;53.148;8.204;2024-02-23T02:32:09;44.96;42.21;55.50;;
49215;Laerm;45943;53.148;8.204;2024-02-23T02:34:35;45.12;41.90;55.73;;
49215;Laerm;45943;53.148;8.204;2024-02-23T02:37:01;44.42;42.35;49.67;;
49215;Laerm;45943;53.148;8.204;2024-02-23T02:39:27;49.41;41.58;67.38;;
49215;Laerm;45943;53.148;8.204;2024-02-23T02:41:53;50.61;40.93;67.38;;
49215;Laerm;45943;53.148;8.204;2024-02-23T02:44:19;44.85;42.28;50.04;;
49215;Laerm;45943;53.148;8.204;2024-02-23T02:46:45;43.69;41.74;46.35;;
49215;Laerm;45943;53.148;8.204;2024-02-23T02:49:12;43.86;41.31;46.54;;
49215;Laerm;45943;53.148;8.204;2024-02-23T02:51:38;44.09;41.58;48.53;;
49215;Laerm;45943;53.148;8.204;2024-02-23T02:54:04;46.36;43.99;54.76;;
49215;Laerm;45943;53.148;8.204;2024-02-23T02:56:30;45.73;43.25;53.73;;
49215;Laerm;45943;53.148;8.204;2024-02-23T02:58:56;44.51;41.90;49.15;;
49215;Laerm;45943;53.148;8.204;2024-02-23T03:01:23;45.86;42.82;51.02;;
49215;Laerm;45943;53.148;8.204;2024-02-23T03:03:49;52.92;44.59;71.14;;
49215;Laerm;45943;53.148;8.204;2024-02-23T03:06:15;48.44;44.54;57.64;;
49215;Laerm;45943;53.148;8.204;2024-02-23T03:08:42;48.46;44.14;62.64;;
49215;Laerm;45943;53.148;8.204;2024-02-23T03:11:08;46.34;42.95;59.20;;
49215;Laerm;45943;53.148;8.204;2024-02-23T03:13:34;50.24;43.64;67.29;;
49215;Laerm;45943;53.148;8.204;2024-02-23T03:16:00;47.68;43.84;61.24;;
49215;Laerm;45943;53.148;8.204;2024-02-23T03:18:26;55.58;44.18;72.74;;
49215;Laerm;45943;53.148;8.204;2024-02-23T03:20:55;48.38;44.32;61.81;;
49215;Laerm;45943;53.148;8.204;2024-02-23T03:23:21;50.41;44.04;68.40;;
49215;Laerm;45943;53.148;8.204;2024-02-23T03:25:47;47.48;43.94;62.97;;
49215;Laerm;45943;53.148;8.204;2024-02-23T03:28:13;49.82;43.13;66.29;;
49215;Laerm;45943;53.148;8.204;2024-02-23T03:30:39;48.78;42.49;62.84;;
49215;Laerm;45943;53.148;8.204;2024-02-23T03:33:05;45.87;43.29;53.95;;
49215;Laerm;45943;53.148;8.204;2024-02-23T03:35:31;45.37;43.19;57.16;;
49215;Laerm;45943;53.148;8.204;2024-02-23T03:37:57;44.96;42.06;54.46;;
49215;Laerm;45943;53.148;8.204;2024-02-23T03:40:23;46.40;43.58;54.02;;
49215;Laerm;45943;53.148;8.204;2024-02-23T03:42:49;45.69;43.58;57.36;;
49215;Laerm;45943;53.148;8.204;2024-02-23T03:45:15;46.65;42.35;59.18;;
49215;Laerm;45943;53.148;8.204;2024-02-23T03:47:41;49.59;42.69;67.44;;
49215;Laerm;45943;53.148;8.204;2024-02-23T03:50:08;44.97;42.89;52.98;;
49215;Laerm;45943;53.148;8.204;2024-02-23T03:52:34;44.95;42.13;51.70;;
49215;Laerm;45943;53.148;8.204;2024-02-23T03:55:00;44.65;42.42;48.99;;
49215;Laerm;45943;53.148;8.204;2024-02-23T03:57:26;49.30;42.76;66.59;;
49215;Laerm;45943;53.148;8.204;2024-02-23T03:59:56;46.40;43.94;54.30;;
49215;Laerm;45943;53.148;8.204;2024-02-23T04:02:22;48.26;44.37;58.50;;
49215;Laerm;45943;53.148;8.204;2024-02-23T04:04:48;46.60;43.69;51.55;;
49215;Laerm;45943;53.148;8.204;2024-02-23T04:07:14;50.33;43.84;64.02;;
49215;Laerm;45943;53.148;8.204;2024-02-23T04:09:41;49.43;45.18;63.34;;
49215;Laerm;45943;53.148;8.204;2024-02-23T04:12:07;47.40;44.71;54.18;;
49215;Laerm;45943;53.148;8.204;2024-02-23T04:14:33;48.71;44.67;65.10;;
49215;Laerm;45943;53.148;8.204;2024-02-23T04:17:03;51.44;44.46;65.46;;
49215;Laerm;45943;53.148;8.204;2024-02-23T04:19:29;53.75;45.64;69.33;;
49215;Laerm;45943;53.148;8.204;2024-02-23T04:21:55;54.25;46.02;69.04;;
49215;Laerm;45943;53.148;8.204;2024-02-23T04:24:21;52.99;44.63;67.54;;
49215;Laerm;45943;53.148;8.204;2024-02-23T04:26:48;51.97;44.99;66.96;;
49215;Laerm;45943;53.148;8.204;2024-02-23T04:29:14;52.03;43.94;64.61;;
49215;Laerm;45943;53.148;8.204;2024-02-23T04:31:39;54.92;44.91;69.36;;
49215;Laerm;45943;53.148;8.204;2024-02-23T04:34:05;49.62;45.11;60.32;;
49215;Laerm;45943;53.148;8.204;2024-02-23T04:36:31;53.00;45.07;69.01;;
49215;Laerm;45943;53.148;8.204;2024-02-23T04:38:58;55.53;44.63;69.74;;
49215;Laerm;45943;53.148;8.204;2024-02-23T04:41:24;50.34;44.28;67.32;;
49215;Laerm;45943;53.148;8.204;2024-02-23T04:43:50;51.36;44.95;66.40;;
49215;Laerm;45943;53.148;8.204;2024-02-23T04:46:16;52.59;44.95;70.86;;
49215;Laerm;45943;53.148;8.204;2024-02-23T04:48:42;53.00;44.71;67.58;;
49215;Laerm;45943;53.148;8.204;2024-02-23T04:51:08;49.28;44.32;57.41;;
49215;Laerm;45943;53.148;8.204;2024-02-23T04:53:37;54.13;44.41;65.89;;
49215;Laerm;45943;53.148;8.204;2024-02-23T04:56:04;49.40;44.95;60.06;;
49215;Laerm;45943;53.148;8.204;2024-02-23T04:58:31;47.57;43.89;52.40;;
49215;Laerm;45943;53.148;8.204;2024-02-23T05:00:57;50.11;44.18;64.44;;
49215;Laerm;45943;53.148;8.204;2024-02-23T05:03:23;47.46;43.79;63.60;;
49215;Laerm;45943;53.148;8.204;2024-02-23T05:05:49;46.72;44.41;55.85;;
49215;Laerm;45943;53.148;8.204;2024-02-23T05:08:22;52.64;43.79;67.11;;
49215;Laerm;45943;53.148;8.204;2024-02-23T05:10:53;52.40;43.31;66.20;;
49215;Laerm;45943;53.148;8.204;2024-02-23T05:13:19;48.31;43.48;62.88;;
49215;Laerm;45943;53.148;8.204;2024-02-23T05:15:45;51.51;44.11;70.94;;
49215;Laerm;45943;53.148;8.204;2024-02-23T05:18:11;55.40;44.91;70.53;;
49215;Laerm;45943;53.148;8.204;2024-02-23T05:20:37;55.03;45.90;71.42;;
49215;Laerm;45943;53.148;8.204;2024-02-23T05:23:03;51.37;44.91;63.80;;
49215;Laerm;45943;53.148;8.204;2024-02-23T05:25:29;53.89;45.22;69.69;;
49215;Laerm;45943;53.148;8.204;2024-02-23T05:27:55;55.76;44.99;67.94;;
49215;Laerm;45943;53.148;8.204;2024-02-23T05:30:21;53.00;44.46;68.65;;
49215;Laerm;45943;53.148;8.204;2024-02-23T05:32:47;53.68;45.03;67.57;;
49215;Laerm;45943;53.148;8.204;2024-02-23T05:35:14;57.93;44.91;76.36;;
49215;Laerm;45943;53.148;8.204;2024-02-23T05:37:41;53.06;44.67;67.93;;
49215;Laerm;45943;53.148;8.204;2024-02-23T05:40:07;51.48;44.54;67.59;;
49215;Laerm;45943;53.148;8.204;2024-02-23T05:42:37;53.39;45.25;65.40;;
49215;Laerm;45943;53.148;8.204;2024-02-23T05:45:03;50.88;44.87;68.23;;
49215;Laerm;45943;53.148;8.204;2024-02-23T05:47:30;56.33;45.74;69.22;;
49215;Laerm;45943;53.148;8.204;2024-02-23T05:49:56;55.35;45.36;66.92;;
49215;Laerm;45943;53.148;8.204;2024-02-23T05:52:22;54.52;45.43;67.51;;
49215;Laerm;45943;53.148;8.204;2024-02-23T05:54:48;57.52;45.77;71.62;;
49215;Laerm;45943;53.148;8.204;2024-02-23T05:57:14;59.34;44.95;75.71;;
49215;Laerm;45943;53.148;8.204;2024-02-23T05:59:40;55.70;44.99;76.58;;
49215;Laerm;45943;53.148;8.204;2024-02-23T06:02:06;53.99;44.98;69.20;;
49215;Laerm;45943;53.148;8.204;2024-02-23T06:04:32;52.83;44.59;64.69;;
49215;Laerm;45943;53.148;8.204;2024-02-23T06:06:58;58.75;44.87;72.25;;
49215;Laerm;45943;53.148;8.204;2024-02-23T06:09:24;56.76;45.11;72.35;;
49215;Laerm;45943;53.148;8.204;2024-02-23T06:11:50;56.26;44.87;71.03;;
49215;Laerm;45943;53.148;8.204;2024-02-23T06:14:16;55.94;45.18;68.19;;
49215;Laerm;45943;53.148;8.204;2024-02-23T06:16:43;54.27;44.83;67.17;;
49215;Laerm;45943;53.148;8.204;2024-02-23T06:19:09;54.61;45.43;67.61;;
49215;Laerm;45943;53.148;8.204;2024-02-23T06:21:35;58.39;45.33;70.04;;
49215;Laerm;45943;53.148;8.204;2024-02-23T06:24:01;56.45;45.71;73.27;;
49215;Laerm;45943;53.148;8.204;2024-02-23T06:26:27;55.27;44.67;65.62;;
49215;Laerm;45943;53.148;8.204;2024-02-23T06:28:53;59.28;45.50;75.51;;
49215;Laerm;45943;53.148;8.204;2024-02-23T06:31:19;56.87;46.54;68.01;;
49215;Laerm;45943;53.148;8.204;2024-02-23T06:33:45;59.06;45.43;71.14;;
49215;Laerm;45943;53.148;8.204;2024-02-23T06:36:14;56.72;45.80;68.50;;
49215;Laerm;45943;53.148;8.204;2024-02-23T06:38:40;56.52;45.25;68.53;;
49215;Laerm;45943;53.148;8.204;2024-02-23T06:41:06;56.18;46.46;70.27;;
49215;Laerm;45943;53.148;8.204;2024-02-23T06:43:34;58.95;46.51;85.03;;
49215;Laerm;45943;53.148;8.204;2024-02-23T06:46:05;56.71;46.80;68.02;;
49215;Laerm;45943;53.148;8.204;2024-02-23T06:48:31;60.22;46.35;75.22;;
49215;Laerm;45943;53.148;8.204;2024-02-23T06:50:58;58.75;46.49;71.35;;
49215;Laerm;45943;53.148;8.204;2024-02-23T06:53:24;57.64;45.11;69.51;;
49215;Laerm;45943;53.148;8.204;2024-02-23T06:55:50;58.26;45.77;77.10;;
49215;Laerm;45943;53.148;8.204;2024-02-23T06:58:16;57.33;46.14;70.85;;
49215;Laerm;45943;53.148;8.204;2024-02-23T07:00:42;58.09;46.17;75.07;;
49215;Laerm;45943;53.148;8.204;2024-02-23T07:03:08;57.89;45.67;67.64;;
49215;Laerm;45943;53.148;8.204;2024-02-23T07:05:34;57.13;45.71;70.51;;
49215;Laerm;45943;53.148;8.204;2024-02-23T07:08:01;57.31;44.63;68.05;;
49215;Laerm;45943;53.148;8.204;2024-02-23T07:10:27;56.37;45.18;67.05;;
49215;Laerm;45943;53.148;8.204;2024-02-23T07:12:53;55.94;45.14;69.13;;
49215;Laerm;45943;53.148;8.204;2024-02-23T07:15:21;57.65;45.74;68.05;;
49215;Laerm;45943;53.148;8.204;2024-02-23T07:17:47;57.21;44.95;71.46;;
49215;Laerm;45943;53.148;8.204;2024-02-23T07:20:13;56.63;45.74;68.08;;
49215;Laerm;45943;53.148;8.204;2024-02-23T07:22:43;57.40;45.61;70.39;;
49215;Laerm;45943;53.148;8.204;2024-02-23T07:25:10;56.81;45.64;67.65;;
49215;Laerm;45943;53.148;8.204;2024-02-23T07:27:36;58.50;46.40;80.65;;
49215;Laerm;45943;53.148;8.204;2024-02-23T07:30:02;56.74;46.05;67.35;;
49215;Laerm;45943;53.148;8.204;2024-02-23T07:32:30;56.26;45.87;66.80;;
49215;Laerm;45943;53.148;8.204;2024-02-23T07:34:56;55.66;46.85;68.65;;
49215;Laerm;45943;53.148;8.204;2024-02-23T07:37:26;54.35;45.07;66.36;;
49215;Laerm;45943;53.148;8.204;2024-02-23T07:39:52;57.05;45.83;68.90;;
49215;Laerm;45943;53.148;8.204;2024-02-23T07:42:18;56.02;44.54;70.89;;
49215;Laerm;45943;53.148;8.204;2024-02-23T07:44:44;56.89;45.11;69.68;;
49215;Laerm;45943;53.148;8.204;2024-02-23T07:47:11;53.93;44.54;66.39;;
49215;Laerm;45943;53.148;8.204;2024-02-23T07:49:38;56.12;45.61;65.57;;
49215;Laerm;45943;53.148;8.204;2024-02-23T07:52:04;55.85;44.61;67.00;;
49215;Laerm;45943;53.148;8.204;2024-02-23T07:54:30;56.52;44.71;68.03;;
49215;Laerm;45943;53.148;8.204;2024-02-23T07:56:57;51.32;44.50;66.36;;
49215;Laerm;45943;53.148;8.204;2024-02-23T07:59:23;56.56;44.87;70.11;;
49215;Laerm;45943;53.148;8.204;2024-02-23T08:01:49;55.72;45.14;68.19;;
49215;Laerm;45943;53.148;8.204;2024-02-23T08:04:15;58.53;45.07;70.66;;
49215;Laerm;45943;53.148;8.204;2024-02-23T08:06:42;56.12;44.54;70.01;;
49215;Laerm;45943;53.148;8.204;2024-02-23T08:09:08;57.80;44.75;70.91;;
49215;Laerm;45943;53.148;8.204;2024-02-23T08:11:35;53.78;44.37;68.46;;
49215;Laerm;45943;53.148;8.204;2024-02-23T08:14:01;54.54;44.71;66.65;;
49215;Laerm;45943;53.148;8.204;2024-02-23T08:16:29;53.41;44.28;67.74;;
49215;Laerm;45943;53.148;8.204;2024-02-23T08:18:55;57.44;46.43;68.10;;
49215;Laerm;45943;53.148;8.204;2024-02-23T08:21:21;57.88;49.67;74.82;;
49215;Laerm;45943;53.148;8.204;2024-02-23T08:23:46;63.13;48.30;75.75;;
49215;Laerm;45943;53.148;8.204;2024-02-23T08:26:12;58.79;46.11;76.20;;
49215;Laerm;45943;53.148;8.204;2024-02-23T08:28:38;63.61;45.77;90.68;;
49215;Laerm;45943;53.148;8.204;2024-02-23T08:31:04;58.27;45.25;76.08;;
49215;Laerm;45943;53.148;8.204;2024-02-23T08:33:30;55.71;44.71;72.89;;
49215;Laerm;45943;53.148;8.204;2024-02-23T08:35:57;56.83;44.46;70.16;;
49215;Laerm;45943;53.148;8.204;2024-02-23T08:38:23;57.58;44.61;74.09;;
49215;Laerm;45943;53.148;8.204;2024-02-23T08:40:49;57.00;44.71;69.87;;
49215;Laerm;45943;53.148;8.204;2024-02-23T08:43:16;55.88;45.11;70.62;;
49215;Laerm;45943;53.148;8.204;2024-02-23T08:45:42;61.34;44.41;77.20;;
49215;Laerm;45943;53.148;8.204;2024-02-23T08:48:08;56.72;44.59;67.98;;
49215;Laerm;45943;53.148;8.204;2024-02-23T08:50:34;55.43;44.09;67.76;;
49215;Laerm;45943;53.148;8.204;2024-02-23T08:53:00;55.66;44.37;69.54;;
49215;Laerm;45943;53.148;8.204;2024-02-23T08:55:26;57.18;43.94;72.88;;
49215;Laerm;45943;53.148;8.204;2024-02-23T08:57:52;62.98;44.71;73.11;;
49215;Laerm;45943;53.148;8.204;2024-02-23T09:00:18;57.07;45.54;70.49;;
49215;Laerm;45943;53.148;8.204;2024-02-23T09:02:44;56.39;44.32;72.19;;
49215;Laerm;45943;53.148;8.204;2024-02-23T09:05:10;57.29;44.23;74.31;;
49215;Laerm;45943;53.148;8.204;2024-02-23T09:07:36;54.69;44.50;68.23;;
49215;Laerm;45943;53.148;8.204;2024-02-23T09:10:02;57.27;43.53;67.13;;
49215;Laerm;45943;53.148;8.204;2024-02-23T09:12:30;52.74;43.84;68.39;;
49215;Laerm;45943;53.148;8.204;2024-02-23T09:14:56;57.65;44.99;70.50;;
49215;Laerm;45943;53.148;8.204;2024-02-23T09:17:22;54.31;44.28;69.06;;
49215;Laerm;45943;53.148;8.204;2024-02-23T09:19:49;60.37;43.84;73.08;;
49215;Laerm;45943;53.148;8.204;2024-02-23T09:22:15;55.15;44.67;65.04;;
49215;Laerm;45943;53.148;8.204;2024-02-23T09:24:41;56.25;44.99;69.67;;
49215;Laerm;45943;53.148;8.204;2024-02-23T09:27:08;55.59;45.11;69.59;;
49215;Laerm;45943;53.148;8.204;2024-02-23T09:29:34;56.37;43.48;67.19;;
49215;Laerm;45943;53.148;8.204;2024-02-23T09:32:01;55.92;44.18;69.00;;
49215;Laerm;45943;53.148;8.204;2024-02-23T09:34:27;54.56;43.58;71.57;;
49215;Laerm;45943;53.148;8.204;2024-02-23T09:36:53;55.35;43.58;69.21;;
49215;Laerm;45943;53.148;8.204;2024-02-23T09:39:19;58.01;44.04;71.26;;
49215;Laerm;45943;53.148;8.204;2024-02-23T09:41:50;55.90;44.63;69.36;;
49215;Laerm;45943;53.148;8.204;2024-02-23T09:44:18;55.27;43.79;67.51;;
49215;Laerm;45943;53.148;8.204;2024-02-23T09:46:44;56.45;43.79;71.24;;
49215;Laerm;45943;53.148;8.204;2024-02-23T09:49:11;58.40;44.67;71.13;;
49215;Laerm;45943;53.148;8.204;2024-02-23T09:51:39;57.23;44.18;68.01;;
49215;Laerm;45943;53.148;8.204;2024-02-23T09:54:05;62.23;44.23;85.71;;
49215;Laerm;45943;53.148;8.204;2024-02-23T09:56:31;57.97;43.89;72.71;;
49215;Laerm;45943;53.148;8.204;2024-02-23T09:59:01;59.38;44.54;74.71;;
49215;Laerm;45943;53.148;8.204;2024-02-23T10:01:30;55.19;43.89;77.42;;
49215;Laerm;45943;53.148;8.204;2024-02-23T10:04:01;60.38;43.58;76.02;;
49215;Laerm;45943;53.148;8.204;2024-02-23T10:06:29;57.92;43.99;73.86;;
49215;Laerm;45943;53.148;8.204;2024-02-23T10:08:55;57.59;45.29;72.05;;
49215;Laerm;45943;53.148;8.204;2024-02-23T10:11:23;61.60;44.23;81.64;;
49215;Laerm;45943;53.148;8.204;2024-02-23T10:13:49;57.28;44.23;71.81;;
49215;Laerm;45943;53.148;8.204;2024-02-23T10:16:16;55.85;43.25;73.18;;
49215;Laerm;45943;53.148;8.204;2024-02-23T10:18:42;57.98;43.64;69.56;;
49215;Laerm;45943;53.148;8.204;2024-02-23T10:21:08;55.71;43.79;68.66;;
49215;Laerm;45943;53.148;8.204;2024-02-23T10:23:34;59.48;43.31;72.92;;
49215;Laerm;45943;53.148;8.204;2024-02-23T10:26:00;54.18;43.69;69.39;;
49215;Laerm;45943;53.148;8.204;2024-02-23T10:28:26;59.78;44.75;72.74;;
49215;Laerm;45943;53.148;8.204;2024-02-23T10:30:53;60.03;44.04;77.42;;
49215;Laerm;45943;53.148;8.204;2024-02-23T10:33:23;58.37;43.58;73.03;;
49215;Laerm;45943;53.148;8.204;2024-02-23T10:35:56;52.95;43.69;69.24;;
49215;Laerm;45943;53.148;8.204;2024-02-23T10:38:23;55.44;43.74;69.72;;
49215;Laerm;45943;53.148;8.204;2024-02-23T10:40:54;60.32;44.79;76.96;;
49215;Laerm;45943;53.148;8.204;2024-02-23T10:43:28;58.74;45.07;75.74;;
49215;Laerm;45943;53.148;8.204;2024-02-23T10:45:57;55.37;44.59;69.52;;
49215;Laerm;45943;53.148;8.204;2024-02-23T10:48:24;59.88;44.28;74.06;;
49215;Laerm;45943;53.148;8.204;2024-02-23T10:50:50;58.69;44.95;72.83;;
49215;Laerm;45943;53.148;8.204;2024-02-23T10:53:16;61.87;44.32;77.34;;
49215;Laerm;45943;53.148;8.204;2024-02-23T10:55:45;58.81;43.69;71.09;;
49215;Laerm;45943;53.148;8.204;2024-02-23T10:58:12;58.02;44.32;73.66;;
49215;Laerm;45943;53.148;8.204;2024-02-23T11:00:39;56.36;44.37;73.04;;
49215;Laerm;45943;53.148;8.204;2024-02-23T11:03:06;57.41;45.14;71.69;;
49215;Laerm;45943;53.148;8.204;2024-02-23T11:05:33;57.53;43.74;72.44;;
49215;Laerm;45943;53.148;8.204;2024-02-23T11:07:59;58.37;43.19;81.53;;
49215;Laerm;45943;53.148;8.204;2024-02-23T11:10:25;61.51;44.23;74.58;;
49215;Laerm;45943;53.148;8.204;2024-02-23T11:13:00;57.65;43.69;74.15;;
49215;Laerm;45943;53.148;8.204;2024-02-23T11:15:27;60.14;44.32;73.84;;
49215;Laerm;45943;53.148;8.204;2024-02-23T11:17:54;59.76;47.68;73.20;;
49215;Laerm;45943;53.148;8.204;2024-02-23T11:20:21;67.28;45.50;81.93;;
49215;Laerm;45943;53.148;8.204;2024-02-23T11:22:54;63.99;45.87;75.15;;
49215;Laerm;45943;53.148;8.204;2024-02-23T11:25:20;57.65;43.58;73.82;;
49215;Laerm;45943;53.148;8.204;2024-02-23T11:27:52;59.60;44.14;74.37;;
49215;Laerm;45943;53.148;8.204;2024-02-23T11:30:18;58.73;44.67;73.19;;
49215;Laerm;45943;53.148;8.204;2024-02-23T11:32:46;59.75;44.75;79.22;;
49215;Laerm;45943;53.148;8.204;2024-02-23T11:35:14;57.80;45.18;70.09;;
49215;Laerm;45943;53.148;8.204;2024-02-23T11:40:25;61.76;46.17;72.73;;
49215;Laerm;45943;53.148;8.204;2024-02-23T11:42:52;60.18;45.43;73.33;;
49215;Laerm;45943;53.148;8.204;2024-02-23T11:45:17;57.56;44.67;74.23;;
49215;Laerm;45943;53.148;8.204;2024-02-23T11:47:43;56.46;43.01;70.01;;
49215;Laerm;45943;53.148;8.204;2024-02-23T11:50:10;58.72;43.69;69.92;;
49215;Laerm;45943;53.148;8.204;2024-02-23T11:52:39;58.91;43.79;72.08;;
49215;Laerm;45943;53.148;8.204;2024-02-23T11:55:06;59.49;44.54;70.75;;
49215;Laerm;45943;53.148;8.204;2024-02-23T11:57:33;58.62;44.41;71.75;;
49215;Laerm;45943;53.148;8.204;2024-02-23T12:00:01;59.27;48.00;70.82;;
49215;Laerm;45943;53.148;8.204;2024-02-23T12:02:28;67.95;44.59;84.56;;
49215;Laerm;45943;53.148;8.204;2024-02-23T12:04:55;61.52;47.03;72.96;;
49215;Laerm;45943;53.148;8.204;2024-02-23T12:07:21;57.24;46.05;72.73;;
49215;Laerm;45943;53.148;8.204;2024-02-23T12:09:48;61.28;45.40;77.83;;
49215;Laerm;45943;53.148;8.204;2024-02-23T12:12:14;62.37;45.40;79.57;;
49215;Laerm;45943;53.148;8.204;2024-02-23T12:14:40;57.27;46.02;70.19;;
49215;Laerm;45943;53.148;8.204;2024-02-23T12:17:08;60.26;44.50;76.27;;
49215;Laerm;45943;53.148;8.204;2024-02-23T12:19:38;65.21;45.71;81.41;;
49215;Laerm;45943;53.148;8.204;2024-02-23T12:22:10;61.43;46.17;74.49;;
49215;Laerm;45943;53.148;8.204;2024-02-23T12:24:36;57.92;44.75;70.22;;
49215;Laerm;45943;53.148;8.204;2024-02-23T12:27:02;58.43;44.23;72.93;;
49215;Laerm;45943;53.148;8.204;2024-02-23T12:29:28;58.28;44.59;71.06;;
49215;Laerm;45943;53.148;8.204;2024-02-23T12:32:06;58.34;44.04;69.59;;
49215;Laerm;45943;53.148;8.204;2024-02-23T12:34:34;58.14;44.32;72.90;;
49215;Laerm;45943;53.148;8.204;2024-02-23T12:37:02;58.15;44.14;74.86;;
49215;Laerm;45943;53.148;8.204;2024-02-23T12:39:29;59.27;44.63;73.66;;
49215;Laerm;45943;53.148;8.204;2024-02-23T12:41:55;57.94;44.83;76.37;;
49215;Laerm;45943;53.148;8.204;2024-02-23T12:44:22;57.62;44.63;70.69;;
49215;Laerm;45943;53.148;8.204;2024-02-23T12:46:48;58.21;45.25;71.55;;
49215;Laerm;45943;53.148;8.204;2024-02-23T12:49:14;59.30;45.47;72.97;;
49215;Laerm;45943;53.148;8.204;2024-02-23T12:51:41;57.88;45.25;73.93;;
49215;Laerm;45943;53.148;8.204;2024-02-23T12:54:08;58.71;45.22;74.80;;
49215;Laerm;45943;53.148;8.204;2024-02-23T12:56:34;60.14;46.90;73.65;;
49215;Laerm;45943;53.148;8.204;2024-02-23T12:59:00;58.57;44.54;72.77;;
49215;Laerm;45943;53.148;8.204;2024-02-23T13:01:26;59.65;44.04;78.52;;
49215;Laerm;45943;53.148;8.204;2024-02-23T13:03:52;65.14;43.94;85.53;;
49215;Laerm;45943;53.148;8.204;2024-02-23T13:06:18;55.88;45.22;68.29;;
49215;Laerm;45943;53.148;8.204;2024-02-23T13:08:44;58.86;44.99;72.05;;
49215;Laerm;45943;53.148;8.204;2024-02-23T13:11:10;58.89;44.99;71.43;;
49215;Laerm;45943;53.148;8.204;2024-02-23T13:13:36;58.37;45.40;77.74;;
49215;Laerm;45943;53.148;8.204;2024-02-23T13:16:02;58.32;45.25;73.53;;
49215;Laerm;45943;53.148;8.204;2024-02-23T13:18:28;57.47;45.40;68.95;;
49215;Laerm;45943;53.148;8.204;2024-02-23T13:20:54;63.22;46.88;90.62;;
49215;Laerm;45943;53.148;8.204;2024-02-23T13:23:20;58.96;45.03;72.28;;
49215;Laerm;45943;53.148;8.204;2024-02-23T13:25:46;57.25;44.50;70.37;;
49215;Laerm;45943;53.148;8.204;2024-02-23T13:28:12;58.16;45.29;72.45;;
49215;Laerm;45943;53.148;8.204;2024-02-23T13:30:38;58.96;44.18;71.90;;
49215;Laerm;45943;53.148;8.204;2024-02-23T13:33:05;56.55;44.46;72.73;;
49215;Laerm;45943;53.148;8.204;2024-02-23T13:35:32;57.75;44.67;71.68;;
49215;Laerm;45943;53.148;8.204;2024-02-23T13:37:58;57.15;44.87;68.29;;
49215;Laerm;45943;53.148;8.204;2024-02-23T13:40:24;55.67;45.22;70.86;;
49215;Laerm;45943;53.148;8.204;2024-02-23T13:42:50;56.53;45.87;69.17;;